createdAt,value
2022-12-05T00:02:02.735Z,90.22
2022-12-05T00:04:31.399Z,90.12
2022-12-05T00:06:59.550Z,90.00
2022-12-05T00:09:27.714Z,89.97
2022-12-05T00:11:57.662Z,89.89
2022-12-05T00:14:26.079Z,89.74
2022-12-05T00:16:54.474Z,89.72
2022-12-05T00:19:25.056Z,89.83
2022-12-05T00:21:53.433Z,90.00
2022-12-05T00:24:21.819Z,89.90
2022-12-05T00:26:51.068Z,89.79
2022-12-05T00:29:19.559Z,89.83
2022-12-05T00:31:48.071Z,89.87
2022-12-05T00:34:16.580Z,90.00
2022-12-05T00:36:45.114Z,89.86
2022-12-05T00:39:16.538Z,89.74
2022-12-05T00:41:45.226Z,89.71
2022-12-05T00:44:13.782Z,89.84
2022-12-05T00:46:42.435Z,89.69
2022-12-05T00:49:12.717Z,89.82
2022-12-05T00:51:43.272Z,89.75
2022-12-05T00:54:14.594Z,89.57
2022-12-05T00:56:43.880Z,89.84
2022-12-05T00:59:20.101Z,89.96
2022-12-05T01:01:50.147Z,89.96
2022-12-05T01:04:26.746Z,89.91
2022-12-05T01:06:58.634Z,90.07
2022-12-05T01:09:27.421Z,90.05
2022-12-05T01:11:58.567Z,90.05
2022-12-05T01:14:29.214Z,89.93
2022-12-05T01:16:57.966Z,90.06
2022-12-05T01:19:35.637Z,90.09
2022-12-05T01:22:03.842Z,90.09
2022-12-05T01:24:34.727Z,90.11
2022-12-05T01:27:03.303Z,90.22
2022-12-05T01:29:31.447Z,90.33
2022-12-05T01:31:59.829Z,90.41
2022-12-05T01:34:28.303Z,90.47
2022-12-05T01:36:56.429Z,90.58
2022-12-05T01:39:24.742Z,90.61
2022-12-05T01:41:53.923Z,90.43
2022-12-05T01:44:22.060Z,90.25
2022-12-05T01:46:53.445Z,90.30
2022-12-05T01:49:36.319Z,90.38
2022-12-05T01:52:11.850Z,90.39
2022-12-05T01:54:40.707Z,90.42
2022-12-05T01:57:11.748Z,90.53
2022-12-05T01:59:44.925Z,90.52
2022-12-05T02:03:37.571Z,90.65
2022-12-05T02:06:06.214Z,90.64
2022-12-05T02:08:34.455Z,90.70
2022-12-05T02:11:09.091Z,90.72
2022-12-05T02:13:52.173Z,90.61
2022-12-05T02:16:47.414Z,90.52
2022-12-05T02:19:33.948Z,90.47
2022-12-05T02:22:20.770Z,90.58
2022-12-05T02:25:19.806Z,90.67
2022-12-05T02:28:13.608Z,90.62
2022-12-05T02:30:56.505Z,90.80
2022-12-05T02:33:45.137Z,90.94
2022-12-05T02:36:23.313Z,90.80
2022-12-05T02:38:57.271Z,90.88
2022-12-05T02:41:31.493Z,90.92
2022-12-05T02:44:05.635Z,90.87
2022-12-05T02:46:38.105Z,90.96
2022-12-05T02:49:10.343Z,91.01
2022-12-05T02:51:44.729Z,90.93
2022-12-05T02:54:21.139Z,90.97
2022-12-05T02:56:50.891Z,91.06
2022-12-05T02:59:23.339Z,91.02
2022-12-05T03:01:53.487Z,91.01
2022-12-05T03:04:24.922Z,91.07
2022-12-05T03:07:13.826Z,91.01
2022-12-05T03:10:12.586Z,91.04
2022-12-05T03:12:52.068Z,91.02
2022-12-05T03:15:26.132Z,90.97
2022-12-05T03:18:04.737Z,90.99
2022-12-05T03:20:37.593Z,91.14
2022-12-05T03:23:12.981Z,91.15
2022-12-05T03:26:14.487Z,91.09
2022-12-05T03:28:53.311Z,91.12
2022-12-05T03:31:45.634Z,91.15
2022-12-05T03:34:28.264Z,91.05
2022-12-05T03:36:57.573Z,91.07
2022-12-05T03:39:31.618Z,91.10
2022-12-05T03:42:09.384Z,91.21
2022-12-05T03:45:00.929Z,91.09
2022-12-05T03:47:47.300Z,91.04
2022-12-05T03:50:28.628Z,91.08
2022-12-05T03:53:19.499Z,91.04
2022-12-05T03:56:02.381Z,90.98
2022-12-05T03:58:47.660Z,91.10
2022-12-05T04:01:19.301Z,91.15
2022-12-05T04:03:52.709Z,91.24
2022-12-05T04:06:29.142Z,91.31
2022-12-05T04:09:05.773Z,91.30
2022-12-05T04:11:40.696Z,91.32
2022-12-05T04:14:13.769Z,91.22
2022-12-05T04:17:05.622Z,91.28
2022-12-05T04:20:01.012Z,91.26
2022-12-05T04:22:29.881Z,91.35
2022-12-05T04:25:19.932Z,91.23
2022-12-05T04:28:16.752Z,91.15
2022-12-05T04:30:55.452Z,91.19
2022-12-05T04:33:34.877Z,91.18
2022-12-05T04:36:06.860Z,91.26
2022-12-05T04:38:48.768Z,91.03
2022-12-05T04:41:23.737Z,91.16
2022-12-05T04:43:56.003Z,91.23
2022-12-05T04:46:25.146Z,91.22
2022-12-05T04:48:59.138Z,91.32
2022-12-05T04:51:30.373Z,91.38
2022-12-05T04:54:06.692Z,91.30
2022-12-05T04:56:38.486Z,91.41
2022-12-05T04:59:06.794Z,91.45
2022-12-05T05:01:41.523Z,91.43
2022-12-05T05:04:14.767Z,91.49
2022-12-05T05:06:43.299Z,91.44
2022-12-05T05:09:11.622Z,91.52
2022-12-05T05:11:39.760Z,91.45
2022-12-05T05:14:08.275Z,91.42
2022-12-05T05:16:41.096Z,91.37
2022-12-05T05:19:11.257Z,91.28
2022-12-05T05:21:41.898Z,91.37
2022-12-05T05:24:11.772Z,91.54
2022-12-05T05:26:43.864Z,91.47
2022-12-05T05:29:13.168Z,91.52
2022-12-05T05:31:42.313Z,91.55
2022-12-05T05:34:12.066Z,91.49
2022-12-05T05:36:40.298Z,91.57
2022-12-05T05:39:15.502Z,91.52
2022-12-05T05:41:44.348Z,91.55
2022-12-05T05:44:12.679Z,91.55
2022-12-05T05:46:41.067Z,91.54
2022-12-05T05:49:10.514Z,91.62
2022-12-05T05:51:38.839Z,91.70
2022-12-05T05:54:06.944Z,91.76
2022-12-05T05:56:35.266Z,91.73
2022-12-05T05:59:03.864Z,91.64
2022-12-05T06:01:31.977Z,91.73
2022-12-05T06:04:00.206Z,91.83
2022-12-05T06:06:28.554Z,91.87
2022-12-05T06:08:57.186Z,91.72
2022-12-05T06:11:27.482Z,91.80
2022-12-05T06:13:57.156Z,91.80
2022-12-05T06:16:25.838Z,91.83
2022-12-05T06:18:54.307Z,91.99
2022-12-05T06:21:23.228Z,91.98
2022-12-05T06:23:51.836Z,92.04
2022-12-05T06:26:21.712Z,91.99
2022-12-05T06:28:50.096Z,91.94
2022-12-05T06:31:21.710Z,91.68
2022-12-05T06:33:50.101Z,91.72
2022-12-05T06:36:21.859Z,91.89
2022-12-05T06:38:50.241Z,91.99
2022-12-05T06:41:24.456Z,92.08
2022-12-05T06:44:00.144Z,92.01
2022-12-05T06:46:30.435Z,92.08
2022-12-05T06:48:58.954Z,92.11
2022-12-05T06:51:27.171Z,92.10
2022-12-05T06:53:56.678Z,92.26
2022-12-05T06:56:25.048Z,92.27
2022-12-05T06:58:54.392Z,92.33
2022-12-05T07:01:39.599Z,92.43
2022-12-05T07:04:11.092Z,92.41
2022-12-05T07:06:40.509Z,92.44
2022-12-05T07:09:09.235Z,92.47
2022-12-05T07:11:38.016Z,92.53
2022-12-05T07:14:14.719Z,92.56
2022-12-05T07:16:47.567Z,92.49
2022-12-05T07:19:15.773Z,92.57
2022-12-05T07:21:43.817Z,92.54
2022-12-05T07:24:11.957Z,92.59
2022-12-05T07:26:42.861Z,92.63
2022-12-05T07:29:11.025Z,92.65
2022-12-05T07:31:42.027Z,92.63
2022-12-05T07:34:14.533Z,92.73
2022-12-05T07:36:42.646Z,92.82
2022-12-05T07:39:11.162Z,92.87
2022-12-05T07:41:40.717Z,92.80
2022-12-05T07:44:11.506Z,92.81
2022-12-05T07:46:40.041Z,92.74
2022-12-05T07:49:08.637Z,92.72
2022-12-05T07:51:37.021Z,92.90
2022-12-05T07:54:06.320Z,92.92
2022-12-05T07:56:34.582Z,92.91
2022-12-05T07:59:02.740Z,92.91
2022-12-05T08:01:31.175Z,92.80
2022-12-05T08:04:01.689Z,92.95
2022-12-05T08:06:31.447Z,93.08
2022-12-05T08:08:59.603Z,92.97
2022-12-05T08:11:37.726Z,92.97
2022-12-05T08:14:07.022Z,92.76
2022-12-05T08:16:35.146Z,92.78
2022-12-05T08:19:06.137Z,92.66
2022-12-05T08:21:35.004Z,92.60
2022-12-05T08:24:09.850Z,92.61
2022-12-05T08:26:39.244Z,92.68
2022-12-05T08:29:13.319Z,92.67
2022-12-05T08:31:44.896Z,92.72
2022-12-05T08:34:14.648Z,92.75
2022-12-05T08:36:44.435Z,92.70
2022-12-05T08:39:16.246Z,92.75
2022-12-05T08:41:46.437Z,92.66
2022-12-05T08:44:18.923Z,92.72
2022-12-05T08:46:50.065Z,92.70
2022-12-05T08:49:18.819Z,92.63
2022-12-05T08:51:47.088Z,92.79
2022-12-05T08:54:16.250Z,92.64
2022-12-05T08:56:44.331Z,92.57
2022-12-05T08:59:12.570Z,92.70
2022-12-05T09:01:42.374Z,92.63
2022-12-05T09:04:12.516Z,92.62
2022-12-05T09:06:42.291Z,92.54
2022-12-05T09:09:12.043Z,92.34
2022-12-05T09:11:49.067Z,92.32
2022-12-05T09:14:18.491Z,92.36
2022-12-05T09:16:47.938Z,92.42
2022-12-05T09:19:25.216Z,92.41
2022-12-05T09:21:54.293Z,92.31
2022-12-05T09:24:22.389Z,92.32
2022-12-05T09:26:51.062Z,92.37
2022-12-05T09:29:19.406Z,92.45
2022-12-05T09:31:49.926Z,92.57
2022-12-05T09:34:20.242Z,92.58
2022-12-05T09:36:55.774Z,92.54
2022-12-05T09:39:30.036Z,92.19
2022-12-05T09:42:36.897Z,92.02
2022-12-05T09:45:18.420Z,91.83
2022-12-05T09:47:46.752Z,91.80
2022-12-05T09:50:22.821Z,91.90
2022-12-05T09:53:07.081Z,92.05
2022-12-05T09:55:40.718Z,91.96
2022-12-05T09:58:38.495Z,91.93
2022-12-05T10:01:31.434Z,91.68
2022-12-05T10:04:12.765Z,91.65
2022-12-05T10:06:45.506Z,91.45
2022-12-05T10:09:40.782Z,91.04
2022-12-05T10:12:30.813Z,90.77
2022-12-05T10:15:18.215Z,90.85
2022-12-05T10:17:57.913Z,90.85
2022-12-05T10:20:31.228Z,90.90
2022-12-05T10:23:06.238Z,90.85
2022-12-05T10:25:36.472Z,90.77
2022-12-05T10:28:15.855Z,90.79
2022-12-05T10:30:47.516Z,90.89
2022-12-05T10:33:21.498Z,90.80
2022-12-05T10:35:54.603Z,90.64
2022-12-05T10:38:29.563Z,90.52
2022-12-05T10:41:05.920Z,90.52
2022-12-05T10:43:35.665Z,90.58
2022-12-05T10:46:07.246Z,90.44
2022-12-05T10:48:40.232Z,90.52
2022-12-05T10:51:14.608Z,90.65
2022-12-05T10:53:45.394Z,90.59
2022-12-05T10:56:40.724Z,90.46
2022-12-05T10:59:11.773Z,90.26
2022-12-05T11:01:49.323Z,90.41
2022-12-05T11:04:22.843Z,90.54
2022-12-05T11:06:52.994Z,90.60
2022-12-05T11:09:45.745Z,90.49
2022-12-05T11:12:19.451Z,90.54
2022-12-05T11:15:21.874Z,90.59
2022-12-05T11:17:51.607Z,90.31
2022-12-05T11:20:19.877Z,90.20
2022-12-05T11:22:51.720Z,90.15
2022-12-05T11:25:34.096Z,90.20
2022-12-05T11:28:17.667Z,90.25
2022-12-05T11:31:01.759Z,90.17
2022-12-05T11:33:35.830Z,90.27
2022-12-05T11:36:21.412Z,90.43
2022-12-05T11:38:50.149Z,90.37
2022-12-05T11:41:50.408Z,90.39
2022-12-05T11:44:34.918Z,90.08
2022-12-05T11:47:33.043Z,90.01
2022-12-05T11:50:31.538Z,90.01
2022-12-05T11:53:31.021Z,90.05
2022-12-05T11:56:28.301Z,90.41
2022-12-05T11:59:08.540Z,90.07
2022-12-05T12:02:05.492Z,90.26
2022-12-05T12:04:58.646Z,90.19
2022-12-05T12:08:05.501Z,90.14
2022-12-05T12:10:47.969Z,90.06
2022-12-05T12:13:51.617Z,89.90
2022-12-05T12:16:27.605Z,89.88
2022-12-05T12:19:07.846Z,90.09
2022-12-05T12:21:41.951Z,90.18
2022-12-05T12:24:25.974Z,90.10
2022-12-05T12:27:14.941Z,90.12
2022-12-05T12:29:58.067Z,89.94
2022-12-05T12:32:32.627Z,89.90
2022-12-05T12:35:40.319Z,89.97
2022-12-05T12:39:07.834Z,89.79
2022-12-05T12:41:55.099Z,89.80
2022-12-05T12:44:38.350Z,89.69
2022-12-05T12:47:13.149Z,89.63
2022-12-05T12:49:47.431Z,89.61
2022-12-05T12:52:21.010Z,89.49
2022-12-05T12:55:23.534Z,89.28
2022-12-05T12:58:19.797Z,89.39
2022-12-05T13:01:01.218Z,89.60
2022-12-05T13:04:15.233Z,89.76
2022-12-05T13:06:49.746Z,89.72
2022-12-05T13:09:34.609Z,89.53
2022-12-05T13:12:27.560Z,89.68
2022-12-05T13:15:05.541Z,89.55
2022-12-05T13:17:34.078Z,89.65
2022-12-05T13:20:05.343Z,89.71
2022-12-05T13:22:33.724Z,89.59
2022-12-05T13:25:01.976Z,89.47
2022-12-05T13:27:30.141Z,89.57
2022-12-05T13:30:01.330Z,89.61
2022-12-05T13:32:38.564Z,89.58
2022-12-05T13:35:06.879Z,89.44
2022-12-05T13:37:54.907Z,89.42
2022-12-05T13:40:48.854Z,89.49
2022-12-05T13:43:20.466Z,89.34
2022-12-05T13:46:10.177Z,89.49
2022-12-05T13:48:42.667Z,89.66
2022-12-05T13:51:36.426Z,89.45
2022-12-05T13:54:13.443Z,89.38
2022-12-05T13:56:56.174Z,89.46
2022-12-05T14:00:03.316Z,89.41
2022-12-05T14:02:44.097Z,89.55
2022-12-05T14:05:20.148Z,89.43
2022-12-05T14:08:02.406Z,89.40
2022-12-05T14:10:32.165Z,89.31
2022-12-05T14:13:02.807Z,89.29
2022-12-05T14:15:38.853Z,89.38
2022-12-05T14:18:13.112Z,89.52
2022-12-05T14:20:53.542Z,89.47
2022-12-05T14:23:37.804Z,89.34
2022-12-05T14:26:24.652Z,89.36
2022-12-05T14:29:14.677Z,89.38
2022-12-05T14:32:04.897Z,89.39
2022-12-05T14:34:37.054Z,89.32
2022-12-05T14:37:26.006Z,89.33
2022-12-05T14:39:58.203Z,89.36
2022-12-05T14:42:36.303Z,89.32
2022-12-05T14:45:28.944Z,89.35
2022-12-05T14:48:05.254Z,89.43
2022-12-05T14:50:35.663Z,89.51
2022-12-05T14:53:15.780Z,89.62
2022-12-05T14:56:09.959Z,89.65
2022-12-05T14:58:57.597Z,89.67
2022-12-05T15:01:29.915Z,89.63
2022-12-05T15:04:07.171Z,89.53
2022-12-05T15:06:46.755Z,89.61
2022-12-05T15:09:52.624Z,89.70
2022-12-05T15:12:25.679Z,89.64
2022-12-05T15:15:03.050Z,89.67
2022-12-05T15:17:41.919Z,89.60
2022-12-05T15:20:29.818Z,89.64
2022-12-05T15:22:58.861Z,89.66
2022-12-05T15:25:33.012Z,89.66
2022-12-05T15:28:19.756Z,89.60
2022-12-05T15:30:56.790Z,89.64
2022-12-05T15:33:27.086Z,89.52
2022-12-05T15:35:56.297Z,89.42
2022-12-05T15:38:31.306Z,89.64
2022-12-05T15:40:59.653Z,89.55
2022-12-05T15:43:32.416Z,89.57
2022-12-05T15:46:30.435Z,89.65
2022-12-05T15:49:00.672Z,89.65
2022-12-05T15:51:38.298Z,89.73
2022-12-05T15:54:10.371Z,89.56
2022-12-05T15:56:46.225Z,89.69
2022-12-05T15:59:21.168Z,89.62
2022-12-05T16:02:01.986Z,89.62
2022-12-05T16:04:47.257Z,89.58
2022-12-05T16:07:15.999Z,89.53
2022-12-05T16:09:46.077Z,89.71
2022-12-05T16:12:38.313Z,89.68
2022-12-05T16:15:24.094Z,89.54
2022-12-05T16:17:57.660Z,89.60
2022-12-05T16:20:28.938Z,89.64
2022-12-05T16:23:00.703Z,89.42
2022-12-05T16:25:33.813Z,89.57
2022-12-05T16:28:11.436Z,89.68
2022-12-05T16:30:40.744Z,89.61
2022-12-05T16:33:16.499Z,89.64
2022-12-05T16:35:46.146Z,89.69
2022-12-05T16:38:17.399Z,89.59
2022-12-05T16:40:45.626Z,89.71
2022-12-05T16:43:23.391Z,89.78
2022-12-05T16:45:54.288Z,89.78
2022-12-05T16:48:32.157Z,89.67
2022-12-05T16:51:21.934Z,89.57
2022-12-05T16:53:52.240Z,89.55
2022-12-05T16:56:24.192Z,89.84
2022-12-05T16:58:52.840Z,89.85
2022-12-05T17:01:33.176Z,89.86
2022-12-05T17:04:04.199Z,89.79
2022-12-05T17:06:32.761Z,89.71
2022-12-05T17:09:00.853Z,89.68
2022-12-05T17:11:35.723Z,89.78
2022-12-05T17:14:04.538Z,89.81
2022-12-05T17:16:32.677Z,89.67
2022-12-05T17:19:04.094Z,89.73
2022-12-05T17:21:34.835Z,89.87
2022-12-05T17:24:02.955Z,89.88
2022-12-05T17:26:31.157Z,89.89
2022-12-05T17:28:59.625Z,89.92
2022-12-05T17:31:27.798Z,90.07
2022-12-05T17:33:56.413Z,90.07
2022-12-05T17:36:24.767Z,90.01
2022-12-05T17:38:52.937Z,90.03
2022-12-05T17:41:24.443Z,90.14
2022-12-05T17:43:52.856Z,90.06
2022-12-05T17:46:23.407Z,90.06
2022-12-05T17:48:52.186Z,90.00
2022-12-05T17:51:22.657Z,90.13
2022-12-05T17:53:52.969Z,90.16
2022-12-05T17:56:21.911Z,90.17
2022-12-05T17:58:50.703Z,90.15
2022-12-05T18:01:20.234Z,90.10
2022-12-05T18:03:49.123Z,90.22
2022-12-05T18:06:18.016Z,90.20
2022-12-05T18:08:46.332Z,90.09
2022-12-05T18:11:15.111Z,89.94
2022-12-05T18:13:44.515Z,89.92
2022-12-05T18:16:12.695Z,89.84
2022-12-05T18:18:41.411Z,89.77
2022-12-05T18:21:12.290Z,89.77
2022-12-05T18:23:41.257Z,89.76
2022-12-05T18:26:10.880Z,89.69
2022-12-05T18:28:39.893Z,89.65
2022-12-05T18:31:12.212Z,89.73
2022-12-05T18:33:41.248Z,89.77
2022-12-05T18:36:16.058Z,89.79
2022-12-05T18:38:51.209Z,89.69
2022-12-05T18:41:19.977Z,89.62
2022-12-05T18:43:48.366Z,89.56
2022-12-05T18:46:16.498Z,89.48
2022-12-05T18:48:48.665Z,89.49
2022-12-05T18:51:20.854Z,89.51
2022-12-05T18:53:54.056Z,89.46
2022-12-05T18:56:36.854Z,89.38
2022-12-05T18:59:07.834Z,89.37
2022-12-05T19:01:37.508Z,89.42
2022-12-05T19:04:07.630Z,89.53
2022-12-05T19:06:36.946Z,89.66
2022-12-05T19:09:12.706Z,89.61
2022-12-05T19:11:47.522Z,89.75
2022-12-05T19:14:18.972Z,89.84
2022-12-05T19:16:58.064Z,89.83
2022-12-05T19:19:29.728Z,89.77
2022-12-05T19:21:59.808Z,89.79
2022-12-05T19:24:28.038Z,89.57
2022-12-05T19:26:56.323Z,89.34
2022-12-05T19:29:24.619Z,89.17
2022-12-05T19:31:52.707Z,89.24
2022-12-05T19:34:21.090Z,89.09
2022-12-05T19:36:49.293Z,89.31
2022-12-05T19:39:20.951Z,89.39
2022-12-05T19:41:49.431Z,89.31
2022-12-05T19:44:18.063Z,89.48
2022-12-05T19:46:47.258Z,89.55
2022-12-05T19:49:17.239Z,89.59
2022-12-05T19:51:45.686Z,89.52
2022-12-05T19:54:17.725Z,89.57
2022-12-05T19:56:46.366Z,89.50
2022-12-05T19:59:16.874Z,89.47
2022-12-05T20:01:45.268Z,89.68
2022-12-05T20:04:16.151Z,89.62
2022-12-05T20:06:46.688Z,89.68
2022-12-05T20:09:17.729Z,89.83
2022-12-05T20:11:52.610Z,89.86
2022-12-05T20:14:23.253Z,89.96
2022-12-05T20:16:52.426Z,90.01
2022-12-05T20:19:22.986Z,90.03
2022-12-05T20:21:51.458Z,90.14
2022-12-05T20:24:19.558Z,90.13
2022-12-05T20:26:47.877Z,90.19
2022-12-05T20:29:16.424Z,90.22
2022-12-05T20:31:44.772Z,90.23
2022-12-05T20:34:14.876Z,90.22
2022-12-05T20:36:43.325Z,90.14
2022-12-05T20:39:15.163Z,89.99
2022-12-05T20:41:44.398Z,89.92
2022-12-05T20:44:15.134Z,90.11
2022-12-05T20:46:43.336Z,89.97
2022-12-05T20:49:14.824Z,89.91
2022-12-05T20:51:44.436Z,89.94
2022-12-05T20:54:14.515Z,90.17
2022-12-05T20:56:42.705Z,90.22
2022-12-05T20:59:12.952Z,90.44
2022-12-05T21:01:42.491Z,90.53
2022-12-05T21:04:13.028Z,90.45
2022-12-05T21:06:42.988Z,90.53
2022-12-05T21:09:16.334Z,90.55
2022-12-05T21:11:45.499Z,90.47
2022-12-05T21:14:13.726Z,90.33
2022-12-05T21:16:41.927Z,90.40
2022-12-05T21:19:13.399Z,90.51
2022-12-05T21:21:41.519Z,90.73
2022-12-05T21:24:10.137Z,90.75
2022-12-05T21:26:39.089Z,90.79
2022-12-05T21:29:08.433Z,91.04
2022-12-05T21:31:39.482Z,90.98
2022-12-05T21:34:22.330Z,91.05
2022-12-05T21:36:50.936Z,91.15
2022-12-05T21:39:19.165Z,91.14
2022-12-05T21:41:47.261Z,91.08
2022-12-05T21:44:15.397Z,91.08
2022-12-05T21:46:43.946Z,90.92
2022-12-05T21:49:12.330Z,91.04
2022-12-05T21:51:40.727Z,91.14
2022-12-05T21:54:09.251Z,91.24
2022-12-05T21:56:37.446Z,91.25
2022-12-05T21:59:08.482Z,91.39
2022-12-05T22:01:36.826Z,91.51
2022-12-05T22:04:05.089Z,91.45
2022-12-05T22:06:34.363Z,91.57
2022-12-05T22:09:03.591Z,91.47
2022-12-05T22:11:31.781Z,91.62
2022-12-05T22:13:59.948Z,91.47
2022-12-05T22:16:33.040Z,91.71
2022-12-05T22:19:03.405Z,91.62
2022-12-05T22:21:34.211Z,91.92
2022-12-05T22:24:02.754Z,91.87
2022-12-05T22:26:31.031Z,91.83
2022-12-05T22:28:59.291Z,92.00
2022-12-05T22:31:27.491Z,92.04
2022-12-05T22:33:55.661Z,92.02
2022-12-05T22:36:26.954Z,91.99
2022-12-05T22:38:55.214Z,91.92
2022-12-05T22:41:26.024Z,91.95
2022-12-05T22:43:57.410Z,91.88
2022-12-05T22:46:28.459Z,91.88
2022-12-05T22:48:57.314Z,92.04
2022-12-05T22:51:27.466Z,92.06
2022-12-05T22:53:56.093Z,91.88
2022-12-05T22:56:26.225Z,91.89
2022-12-05T22:58:59.471Z,91.95
2022-12-05T23:01:35.031Z,91.88
2022-12-05T23:04:06.555Z,91.89
2022-12-05T23:06:36.367Z,92.14
2022-12-05T23:09:07.590Z,92.03
2022-12-05T23:11:37.405Z,91.97
2022-12-05T23:14:06.061Z,92.06
2022-12-05T23:16:34.992Z,92.18
2022-12-05T23:19:05.415Z,92.20
2022-12-05T23:21:39.541Z,92.08
2022-12-05T23:24:10.729Z,91.92
2022-12-05T23:26:44.491Z,91.76
2022-12-05T23:29:15.632Z,91.83
2022-12-05T23:31:44.076Z,91.89
2022-12-05T23:34:12.719Z,91.73
2022-12-05T23:36:41.240Z,91.47
2022-12-05T23:39:09.776Z,91.37
2022-12-05T23:41:38.006Z,91.32
2022-12-05T23:44:06.172Z,91.29
2022-12-05T23:46:35.070Z,90.86
2022-12-05T23:49:04.081Z,90.93
2022-12-05T23:51:32.685Z,91.21
2022-12-05T23:54:02.577Z,91.45
2022-12-05T23:56:33.836Z,91.57
2022-12-05T23:59:04.091Z,91.57
